createdAt,value
2024-05-09T00:01:30.626Z,12.50
2024-05-09T00:04:01.332Z,12.90
2024-05-09T00:06:32.000Z,12.48
2024-05-09T00:09:05.263Z,11.90
2024-05-09T00:11:35.951Z,12.55
2024-05-09T00:14:06.655Z,12.70
2024-05-09T00:16:37.310Z,13.30
2024-05-09T00:19:08.012Z,12.93
2024-05-09T00:21:38.678Z,13.25
2024-05-09T00:24:12.101Z,13.55
2024-05-09T00:26:42.909Z,13.27
2024-05-09T00:29:13.883Z,12.60
2024-05-09T00:31:44.552Z,12.63
2024-05-09T00:34:15.215Z,13.15
2024-05-09T00:36:45.887Z,12.90
2024-05-09T00:39:19.147Z,13.02
2024-05-09T00:41:49.748Z,12.90
2024-05-09T00:44:20.418Z,12.95
2024-05-09T00:46:54.648Z,12.35
2024-05-09T00:49:25.505Z,13.20
2024-05-09T00:51:57.359Z,12.07
2024-05-09T00:54:30.813Z,12.43
2024-05-09T00:57:01.517Z,13.38
2024-05-09T00:59:33.608Z,12.63
2024-05-09T01:02:04.361Z,13.60
2024-05-09T01:04:35.069Z,12.10
2024-05-09T01:07:05.644Z,13.07
2024-05-09T01:09:38.925Z,11.88
2024-05-09T01:12:09.839Z,13.65
2024-05-09T01:14:40.634Z,12.07
2024-05-09T01:17:11.299Z,12.10
2024-05-09T01:19:42.094Z,12.13
2024-05-09T01:22:12.774Z,12.70
2024-05-09T01:24:46.004Z,13.73
2024-05-09T01:27:16.608Z,12.85
2024-05-09T01:29:47.133Z,12.95
2024-05-09T01:32:17.791Z,13.10
2024-05-09T01:34:48.489Z,12.77
2024-05-09T01:37:19.119Z,12.32
2024-05-09T01:39:52.390Z,12.68
2024-05-09T01:42:23.007Z,13.30
2024-05-09T01:44:53.665Z,12.43
2024-05-09T01:47:24.396Z,13.60
2024-05-09T01:49:55.179Z,13.98
2024-05-09T01:52:25.770Z,13.05
2024-05-09T01:55:01.981Z,12.98
2024-05-09T01:57:33.926Z,12.68
2024-05-09T02:00:07.637Z,14.20
2024-05-09T02:02:40.973Z,12.85
2024-05-09T02:05:12.159Z,12.82
2024-05-09T02:07:42.908Z,12.85
2024-05-09T02:10:20.566Z,12.88
2024-05-09T02:12:56.778Z,12.15
2024-05-09T02:15:27.422Z,13.38
2024-05-09T02:17:58.099Z,13.38
2024-05-09T02:20:34.218Z,12.83
2024-05-09T02:23:07.514Z,13.25
2024-05-09T02:25:41.077Z,12.95
2024-05-09T02:28:11.872Z,12.77
2024-05-09T02:30:42.810Z,12.27
2024-05-09T02:33:14.637Z,12.60
2024-05-09T02:35:45.776Z,12.50
2024-05-09T02:38:13.896Z,13.33
2024-05-09T02:40:47.244Z,13.52
2024-05-09T02:43:17.825Z,13.32
2024-05-09T02:45:45.744Z,14.25
2024-05-09T02:48:16.619Z,12.60
2024-05-09T02:50:45.067Z,12.40
2024-05-09T02:53:15.995Z,12.43
2024-05-09T02:55:46.951Z,12.15
2024-05-09T02:58:17.529Z,12.20
2024-05-09T03:00:45.457Z,11.60
2024-05-09T03:03:16.457Z,11.02
2024-05-09T03:05:45.388Z,10.77
2024-05-09T03:08:16.267Z,11.25
2024-05-09T03:10:47.004Z,10.90
2024-05-09T03:13:17.704Z,10.53
2024-05-09T03:15:45.876Z,10.70
2024-05-09T03:18:17.199Z,9.98
2024-05-09T03:20:45.210Z,11.73
2024-05-09T03:23:16.009Z,10.07
2024-05-09T03:25:46.744Z,10.18
2024-05-09T03:28:17.381Z,10.98
2024-05-09T03:30:45.288Z,11.68
2024-05-09T03:33:20.571Z,11.27
2024-05-09T03:35:49.673Z,10.77
2024-05-09T03:38:20.427Z,11.23
2024-05-09T03:40:53.835Z,12.75
2024-05-09T03:43:24.449Z,12.10
2024-05-09T03:45:52.316Z,12.20
2024-05-09T03:48:23.099Z,12.63
2024-05-09T03:50:51.193Z,12.60
2024-05-09T03:53:22.982Z,12.90
2024-05-09T03:55:53.654Z,12.65
2024-05-09T03:58:24.240Z,13.07
2024-05-09T04:00:52.228Z,12.80
2024-05-09T04:03:23.149Z,12.63
2024-05-09T04:05:51.450Z,14.05
2024-05-09T04:08:22.138Z,12.95
2024-05-09T04:10:50.096Z,13.67
2024-05-09T04:13:23.282Z,12.57
2024-05-09T04:15:51.182Z,13.60
2024-05-09T04:18:21.865Z,14.00
2024-05-09T04:20:49.820Z,13.37
2024-05-09T04:23:20.574Z,13.43
2024-05-09T04:25:48.538Z,12.87
2024-05-09T04:28:19.161Z,13.07
2024-05-09T04:30:49.880Z,12.77
2024-05-09T04:33:21.510Z,12.63
2024-05-09T04:35:49.698Z,12.77
2024-05-09T04:38:20.238Z,13.25
2024-05-09T04:40:48.203Z,14.38
2024-05-09T04:43:20.571Z,13.07
2024-05-09T04:45:51.286Z,12.48
2024-05-09T04:48:22.069Z,13.00
2024-05-09T04:50:50.125Z,12.77
2024-05-09T04:53:20.754Z,13.05
2024-05-09T04:55:48.760Z,12.95
2024-05-09T04:58:19.335Z,13.63
2024-05-09T05:00:47.274Z,13.10
2024-05-09T05:03:20.881Z,13.35
2024-05-09T05:05:49.035Z,13.05
2024-05-09T05:08:20.291Z,13.43
2024-05-09T05:10:49.316Z,12.38
2024-05-09T05:13:23.861Z,12.65
2024-05-09T05:15:53.795Z,13.00
2024-05-09T05:18:27.937Z,12.15
2024-05-09T05:20:56.838Z,13.13
2024-05-09T05:23:27.678Z,12.32
2024-05-09T05:25:55.985Z,13.00
2024-05-09T05:28:26.738Z,12.25
2024-05-09T05:30:54.642Z,12.75
2024-05-09T05:33:28.336Z,11.90
2024-05-09T05:35:57.329Z,13.60
2024-05-09T05:38:28.627Z,13.20
2024-05-09T05:40:56.965Z,13.57
2024-05-09T05:43:27.649Z,12.77
2024-05-09T05:45:55.522Z,12.73
2024-05-09T05:48:28.826Z,12.82
2024-05-09T05:50:56.853Z,12.07
2024-05-09T05:53:30.033Z,12.68
2024-05-09T05:55:58.021Z,12.80
2024-05-09T05:58:28.552Z,13.50
2024-05-09T06:00:56.734Z,12.90
2024-05-09T06:03:30.671Z,12.43
2024-05-09T06:05:59.793Z,12.00
2024-05-09T06:08:33.006Z,12.85
2024-05-09T06:11:01.062Z,13.13
2024-05-09T06:13:31.639Z,13.50
2024-05-09T06:16:00.856Z,12.35
2024-05-09T06:18:34.263Z,13.02
2024-05-09T06:21:02.224Z,13.95
2024-05-09T06:23:32.970Z,12.38
2024-05-09T06:26:00.969Z,12.30
2024-05-09T06:28:31.590Z,13.40
2024-05-09T06:30:59.449Z,12.88
2024-05-09T06:33:30.361Z,14.10
2024-05-09T06:36:01.193Z,13.25
2024-05-09T06:38:32.909Z,12.95
2024-05-09T06:41:00.916Z,13.48
2024-05-09T06:43:31.464Z,13.48
2024-05-09T06:45:59.388Z,12.93
2024-05-09T06:48:30.135Z,14.30
2024-05-09T06:51:01.041Z,13.15
2024-05-09T06:53:31.739Z,13.43
2024-05-09T06:56:01.630Z,13.93
2024-05-09T06:58:32.262Z,13.45
2024-05-09T07:01:02.231Z,13.45
2024-05-09T07:03:33.145Z,13.35
2024-05-09T07:06:05.702Z,12.55
2024-05-09T07:08:36.456Z,14.13
2024-05-09T07:11:04.607Z,13.63
2024-05-09T07:13:35.281Z,13.10
2024-05-09T07:16:03.506Z,15.50
2024-05-09T07:18:34.537Z,14.50
2024-05-09T07:21:02.684Z,14.55
2024-05-09T07:23:36.094Z,14.30
2024-05-09T07:26:04.160Z,13.70
2024-05-09T07:28:34.721Z,13.93
2024-05-09T07:31:02.630Z,14.15
2024-05-09T07:33:33.305Z,14.45
2024-05-09T07:36:01.358Z,13.37
2024-05-09T07:38:31.947Z,13.55
2024-05-09T07:41:02.830Z,12.87
2024-05-09T07:43:33.442Z,14.20
2024-05-09T07:46:48.251Z,15.50
2024-05-09T07:54:00.545Z,13.90
2024-05-09T07:56:32.188Z,13.98
2024-05-09T07:59:02.927Z,13.90
2024-05-09T08:01:30.931Z,13.75
2024-05-09T08:04:01.854Z,14.60
2024-05-09T08:06:29.946Z,13.85
2024-05-09T08:09:05.435Z,14.35
2024-05-09T08:11:38.804Z,14.13
2024-05-09T08:14:09.406Z,13.05
2024-05-09T08:16:37.372Z,13.85
2024-05-09T08:19:07.969Z,13.82
2024-05-09T08:21:35.928Z,13.95
2024-05-09T08:24:06.572Z,13.10
2024-05-09T08:26:34.562Z,13.20
2024-05-09T08:29:07.916Z,14.18
2024-05-09T08:31:38.324Z,13.95
2024-05-09T08:34:09.726Z,14.15
2024-05-09T08:36:37.768Z,13.38
2024-05-09T08:39:08.376Z,13.32
2024-05-09T08:41:39.521Z,12.63
2024-05-09T08:44:13.063Z,12.13
2024-05-09T08:46:41.592Z,12.95
2024-05-09T08:49:12.537Z,12.48
2024-05-09T08:51:40.692Z,12.43
2024-05-09T08:54:11.360Z,13.15
2024-05-09T08:56:40.614Z,12.73
2024-05-09T08:59:15.380Z,12.88
2024-05-09T09:01:43.874Z,13.15
2024-05-09T09:04:16.028Z,12.25
2024-05-09T09:06:45.086Z,12.18
2024-05-09T09:09:15.745Z,12.02
2024-05-09T09:11:43.772Z,11.45
2024-05-09T09:14:17.011Z,10.82
2024-05-09T09:16:46.120Z,11.90
2024-05-09T09:19:16.846Z,11.35
2024-05-09T09:21:44.983Z,12.73
2024-05-09T09:24:17.357Z,10.98
2024-05-09T09:26:46.399Z,12.18
2024-05-09T09:29:22.539Z,11.60
2024-05-09T09:31:58.515Z,10.48
2024-05-09T09:34:31.639Z,11.48
2024-05-09T09:37:05.373Z,10.50
2024-05-09T09:39:36.586Z,10.55
2024-05-09T09:42:04.899Z,10.80
2024-05-09T09:44:42.050Z,10.93
2024-05-09T09:47:10.520Z,11.25
2024-05-09T09:49:41.673Z,10.35
2024-05-09T09:52:11.393Z,10.50
2024-05-09T09:54:42.929Z,11.57
2024-05-09T09:57:10.967Z,10.48
2024-05-09T09:59:46.472Z,10.57
2024-05-09T10:02:14.646Z,10.55
2024-05-09T10:04:45.387Z,10.20
2024-05-09T10:07:14.363Z,12.20
2024-05-09T10:09:45.151Z,17.42
2024-05-09T10:12:13.928Z,13.77
2024-05-09T10:14:51.994Z,14.15
2024-05-09T10:17:19.978Z,11.85
2024-05-09T10:19:50.865Z,11.07
2024-05-09T10:22:27.893Z,12.00
2024-05-09T10:24:59.128Z,12.20
2024-05-09T10:27:27.627Z,12.20
2024-05-09T10:30:02.828Z,11.70
2024-05-09T10:32:38.221Z,11.77
2024-05-09T10:35:12.722Z,9.80
2024-05-09T10:37:40.687Z,10.23
2024-05-09T10:40:17.363Z,9.95
2024-05-09T10:42:50.917Z,9.60
2024-05-09T10:45:24.796Z,10.57
2024-05-09T10:47:52.996Z,9.70
2024-05-09T10:50:28.598Z,9.13
2024-05-09T10:53:00.120Z,9.38
2024-05-09T10:55:30.735Z,9.45
2024-05-09T10:57:58.668Z,9.30
2024-05-09T11:00:37.713Z,9.82
2024-05-09T11:03:06.263Z,9.63
2024-05-09T11:05:37.192Z,10.05
2024-05-09T11:08:05.690Z,9.68
2024-05-09T11:10:36.553Z,11.02
2024-05-09T11:13:04.640Z,9.80
2024-05-09T11:15:44.233Z,10.27
2024-05-09T11:18:24.744Z,9.88
2024-05-09T11:20:56.477Z,9.98
2024-05-09T11:23:26.166Z,10.10
2024-05-09T11:25:57.239Z,9.77
2024-05-09T11:28:25.257Z,9.82
2024-05-09T11:31:08.937Z,9.45
2024-05-09T11:33:38.180Z,9.63
2024-05-09T11:36:09.780Z,10.05
2024-05-09T11:38:37.777Z,9.73
2024-05-09T11:41:08.658Z,9.90
2024-05-09T11:43:36.722Z,10.02
2024-05-09T11:46:10.044Z,10.73
2024-05-09T11:48:38.372Z,9.48
2024-05-09T11:51:09.610Z,10.30
2024-05-09T11:53:37.663Z,9.45
2024-05-09T11:56:08.646Z,10.70
2024-05-09T11:58:39.665Z,9.73
2024-05-09T12:01:13.072Z,10.25
2024-05-09T12:03:41.077Z,9.23
2024-05-09T12:06:11.825Z,9.77
2024-05-09T12:08:39.756Z,9.63
2024-05-09T12:11:10.482Z,8.75
2024-05-09T12:13:38.424Z,9.87
2024-05-09T12:16:09.486Z,8.75
2024-05-09T12:18:40.313Z,9.18
2024-05-09T12:21:10.883Z,8.90
2024-05-09T12:23:38.771Z,7.90
2024-05-09T12:26:10.204Z,8.00
2024-05-09T12:28:38.184Z,8.75
2024-05-09T12:31:09.017Z,8.20
2024-05-09T12:33:39.636Z,7.40
2024-05-09T12:36:10.756Z,7.93
2024-05-09T12:38:38.666Z,7.47
2024-05-09T12:41:10.496Z,8.25
2024-05-09T12:43:38.463Z,6.90
2024-05-09T12:46:09.153Z,7.60
2024-05-09T12:48:40.110Z,6.38
2024-05-09T12:51:10.840Z,6.80
2024-05-09T12:53:39.545Z,6.45
2024-05-09T12:56:10.564Z,6.50
2024-05-09T12:58:38.721Z,6.47
2024-05-09T13:01:09.326Z,6.75
2024-05-09T13:03:40.296Z,6.60
2024-05-09T13:06:10.995Z,6.35
2024-05-09T13:08:38.972Z,6.53
2024-05-09T13:11:09.780Z,6.28
2024-05-09T13:13:37.833Z,6.22
2024-05-09T13:16:08.887Z,5.82
2024-05-09T13:18:39.721Z,6.35
2024-05-09T13:21:10.503Z,6.00
2024-05-09T13:23:38.468Z,6.33
2024-05-09T13:26:09.067Z,6.65
2024-05-09T13:28:36.977Z,6.43
2024-05-09T13:31:07.794Z,5.88
2024-05-09T13:33:35.862Z,6.57
2024-05-09T13:36:09.831Z,6.53
2024-05-09T13:38:37.709Z,6.82
2024-05-09T13:41:08.619Z,6.50
2024-05-09T13:43:36.550Z,6.43
2024-05-09T13:46:07.386Z,6.60
2024-05-09T13:48:35.371Z,6.83
2024-05-09T13:51:05.991Z,6.90
2024-05-09T13:53:39.216Z,7.50
2024-05-09T13:56:08.830Z,6.85
2024-05-09T13:58:39.466Z,6.78
2024-05-09T14:01:07.570Z,6.70
2024-05-09T14:03:38.452Z,7.50
2024-05-09T14:06:09.426Z,7.00
2024-05-09T14:08:44.484Z,7.05
2024-05-09T14:11:12.438Z,7.25
2024-05-09T14:13:42.979Z,6.20
2024-05-09T14:16:11.052Z,7.28
2024-05-09T14:18:41.704Z,6.85
2024-05-09T14:21:09.626Z,6.78
2024-05-09T14:23:40.167Z,7.20
2024-05-09T14:26:10.762Z,6.70
2024-05-09T14:28:41.311Z,6.85
2024-05-09T14:31:09.304Z,7.22
2024-05-09T14:33:40.157Z,6.97
2024-05-09T14:36:08.569Z,6.97
2024-05-09T14:38:39.261Z,6.68
2024-05-09T14:41:09.450Z,6.93
2024-05-09T14:43:42.874Z,6.45
2024-05-09T14:46:10.970Z,6.00
2024-05-09T14:48:42.491Z,5.60
2024-05-09T14:53:40.748Z,6.40
2024-05-09T14:56:09.582Z,105.72
2024-05-09T14:58:43.179Z,178.63
2024-05-09T15:01:13.928Z,262.17
2024-05-09T15:03:45.745Z,227.65
2024-05-09T15:06:14.203Z,178.63
2024-05-09T15:08:44.755Z,121.78
2024-05-09T15:11:12.682Z,76.35
2024-05-09T15:13:45.917Z,57.13
2024-05-09T15:16:13.903Z,47.67
2024-05-09T15:18:44.696Z,40.25
2024-05-09T15:21:12.717Z,27.42
2024-05-09T15:23:43.262Z,28.38
2024-05-09T15:26:11.380Z,25.73
2024-05-09T15:28:43.868Z,21.27
2024-05-09T15:31:14.667Z,15.18
2024-05-09T15:33:45.388Z,11.53
2024-05-09T15:36:13.517Z,10.80
2024-05-09T15:38:44.071Z,10.75
2024-05-09T15:41:12.037Z,8.77
2024-05-09T15:43:42.622Z,8.63
2024-05-09T15:46:10.542Z,6.85
2024-05-09T15:48:45.137Z,6.78
2024-05-09T15:51:13.189Z,6.03
2024-05-09T15:53:43.827Z,6.20
2024-05-09T15:56:12.063Z,5.32
2024-05-09T15:58:42.779Z,5.38
2024-05-09T16:01:15.142Z,6.35
2024-05-09T16:03:46.164Z,5.05
2024-05-09T16:06:17.028Z,5.15
2024-05-09T16:08:44.978Z,5.30
2024-05-09T16:11:17.095Z,4.93
2024-05-09T16:13:45.237Z,5.50
2024-05-09T16:16:15.831Z,5.63
2024-05-09T16:18:46.515Z,5.18
2024-05-09T16:21:17.145Z,5.27
2024-05-09T16:23:45.020Z,5.68
2024-05-09T16:26:15.585Z,5.32
2024-05-09T16:28:43.563Z,5.55
2024-05-09T16:31:14.104Z,5.68
2024-05-09T16:33:42.467Z,5.72
2024-05-09T16:36:15.835Z,6.20
2024-05-09T16:38:45.508Z,5.57
2024-05-09T16:41:16.343Z,5.38
2024-05-09T16:43:47.119Z,4.90
2024-05-09T16:46:15.462Z,5.10
2024-05-09T16:48:47.364Z,4.82
2024-05-09T16:51:18.068Z,5.00
2024-05-09T16:53:48.740Z,4.80
2024-05-09T16:56:16.728Z,4.60
2024-05-09T16:58:47.503Z,4.25
2024-05-09T17:01:15.521Z,4.67
2024-05-09T17:03:46.408Z,4.78
2024-05-09T17:06:17.242Z,5.05
2024-05-09T17:08:47.950Z,4.60
2024-05-09T17:11:18.540Z,4.65
2024-05-09T17:13:49.554Z,4.00
2024-05-09T17:16:18.291Z,4.60
2024-05-09T17:18:49.794Z,4.75
2024-05-09T17:21:17.758Z,4.57
2024-05-09T17:23:54.301Z,4.68
2024-05-09T17:26:22.644Z,4.78
2024-05-09T17:28:53.208Z,4.57
2024-05-09T17:31:23.839Z,4.40
2024-05-09T17:33:52.226Z,4.77
2024-05-09T17:36:23.117Z,5.40
2024-05-09T17:38:53.742Z,5.30
2024-05-09T17:41:24.382Z,117.50
2024-05-09T17:43:52.415Z,228.57
2024-05-09T17:46:23.460Z,265.83
2024-05-09T17:48:52.605Z,243.07
2024-05-09T17:51:23.632Z,183.65
2024-05-09T17:53:54.263Z,150.33
2024-05-09T17:56:24.941Z,103.47
2024-05-09T17:58:52.917Z,88.67
2024-05-09T18:01:27.619Z,127.35
2024-05-09T18:03:55.991Z,122.55
2024-05-09T18:06:26.617Z,161.02
2024-05-09T18:08:57.997Z,162.65
2024-05-09T18:11:28.792Z,180.98
2024-05-09T18:13:58.245Z,167.87
2024-05-09T18:16:29.103Z,147.02
2024-05-09T18:18:57.503Z,129.63
2024-05-09T18:21:28.569Z,111.13
2024-05-09T18:24:00.265Z,161.27
2024-05-09T18:26:31.141Z,307.15
2024-05-09T18:28:59.108Z,259.90
2024-05-09T18:31:30.186Z,247.10
2024-05-09T18:33:58.291Z,215.52
2024-05-09T18:36:28.925Z,167.15
2024-05-09T18:39:00.000Z,135.10
2024-05-09T18:41:30.749Z,231.30
2024-05-09T18:43:59.281Z,242.63
2024-05-09T18:46:30.348Z,312.52
2024-05-09T18:48:58.431Z,463.05
2024-05-09T18:51:31.697Z,337.20
2024-05-09T18:54:02.590Z,227.88
2024-05-09T18:56:33.180Z,176.05
2024-05-09T18:59:01.072Z,143.77
2024-05-09T19:01:31.855Z,124.22
2024-05-09T19:04:00.087Z,106.50
2024-05-09T19:06:30.873Z,89.50
2024-05-09T19:08:58.932Z,63.87
2024-05-09T19:11:32.239Z,60.50
2024-05-09T19:14:04.360Z,52.30
2024-05-09T19:16:35.055Z,37.80
2024-05-09T19:19:04.211Z,31.17
2024-05-09T19:21:35.036Z,23.95
2024-05-09T19:24:03.016Z,18.10
2024-05-09T19:26:36.347Z,14.55
2024-05-09T19:29:04.585Z,12.23
2024-05-09T19:31:35.111Z,11.75
2024-05-09T19:34:03.163Z,11.07
2024-05-09T19:36:33.862Z,10.70
2024-05-09T19:39:02.025Z,9.43
2024-05-09T19:41:32.572Z,10.10
2024-05-09T19:44:03.144Z,8.77
2024-05-09T19:46:33.998Z,8.50
2024-05-09T19:49:03.447Z,10.57
2024-05-09T19:51:34.242Z,9.80
2024-05-09T19:54:02.186Z,10.03
2024-05-09T19:56:33.444Z,10.50
2024-05-09T19:59:04.308Z,11.30
2024-05-09T20:01:35.079Z,10.50
2024-05-09T20:04:03.347Z,10.93
2024-05-09T20:06:34.707Z,9.95
2024-05-09T20:09:05.613Z,9.52
2024-05-09T20:11:38.528Z,9.73
2024-05-09T20:14:09.246Z,10.23
2024-05-09T20:16:39.826Z,9.98
2024-05-09T20:19:07.852Z,11.55
2024-05-09T20:21:38.464Z,10.10
2024-05-09T20:24:06.651Z,10.30
2024-05-09T20:26:37.293Z,10.98
2024-05-09T20:29:05.226Z,9.25
2024-05-09T20:31:38.967Z,9.85
2024-05-09T20:34:06.930Z,9.50
2024-05-09T20:36:37.571Z,10.75
2024-05-09T20:39:05.558Z,9.63
2024-05-09T20:41:37.187Z,9.55
2024-05-09T20:44:05.286Z,9.85
2024-05-09T20:46:38.516Z,9.98
2024-05-09T20:49:06.543Z,9.77
2024-05-09T20:51:37.151Z,11.13
2024-05-09T20:54:05.181Z,10.52
2024-05-09T20:56:35.738Z,11.57
2024-05-09T20:59:03.627Z,13.00
2024-05-09T21:01:34.313Z,11.32
2024-05-09T21:04:05.325Z,10.10
2024-05-09T21:06:36.085Z,12.32
2024-05-09T21:09:04.135Z,11.00
2024-05-09T21:11:34.712Z,11.40
2024-05-09T21:14:02.706Z,10.75
2024-05-09T21:16:34.160Z,10.50
2024-05-09T21:19:04.888Z,10.90
2024-05-09T21:21:42.098Z,9.68
2024-05-09T21:24:10.000Z,9.52
2024-05-09T21:26:40.665Z,9.77
2024-05-09T21:29:08.588Z,10.60
2024-05-09T21:31:39.250Z,11.00
2024-05-09T21:34:10.056Z,9.90
2024-05-09T21:36:40.824Z,8.77
2024-05-09T21:39:10.015Z,8.73
2024-05-09T21:41:40.610Z,8.00
2024-05-09T21:44:08.522Z,8.32
2024-05-09T21:46:39.115Z,8.65
2024-05-09T21:49:11.037Z,8.25
2024-05-09T21:51:41.978Z,7.57
2024-05-09T21:54:09.878Z,7.80
2024-05-09T21:56:40.537Z,7.80
2024-05-09T21:59:08.406Z,8.45
2024-05-09T22:01:40.111Z,7.85
2024-05-09T22:04:11.159Z,8.40
2024-05-09T22:06:41.836Z,8.18
2024-05-09T22:09:09.724Z,8.60
2024-05-09T22:11:40.344Z,7.63
2024-05-09T22:14:08.330Z,7.57
2024-05-09T22:16:43.236Z,7.80
2024-05-09T22:19:13.806Z,7.40
2024-05-09T22:21:44.510Z,7.97
2024-05-09T22:24:12.443Z,7.37
2024-05-09T22:26:43.001Z,8.13
2024-05-09T22:29:11.150Z,7.15
2024-05-09T22:31:41.794Z,7.20
2024-05-09T22:34:09.990Z,7.25
2024-05-09T22:36:43.306Z,7.50
2024-05-09T22:39:11.295Z,67.32
2024-05-09T22:41:43.234Z,102.22
2024-05-09T22:44:13.102Z,114.10
2024-05-09T22:46:43.755Z,113.97
2024-05-09T22:49:11.739Z,149.13
2024-05-09T22:51:45.159Z,146.38
2024-05-09T22:54:13.851Z,85.90
2024-05-09T22:56:44.414Z,90.45
2024-05-09T22:59:12.403Z,61.05
2024-05-09T23:01:43.328Z,43.47
2024-05-09T23:04:11.427Z,31.60
2024-05-09T23:06:46.540Z,25.25
2024-05-09T23:09:15.387Z,240.93
2024-05-09T23:11:46.217Z,229.15
2024-05-09T23:14:14.612Z,155.33
2024-05-09T23:16:48.219Z,165.70
2024-05-09T23:19:17.447Z,122.15
2024-05-09T23:21:50.836Z,130.18
2024-05-09T23:24:18.769Z,115.97
2024-05-09T23:26:49.999Z,74.63
2024-05-09T23:29:18.556Z,48.47
2024-05-09T23:31:49.203Z,39.35
2024-05-09T23:34:17.591Z,31.60
2024-05-09T23:36:51.443Z,24.90
2024-05-09T23:39:19.450Z,114.70
2024-05-09T23:41:50.988Z,199.40
2024-05-09T23:46:50.630Z,115.72
2024-05-09T23:49:20.160Z,137.52
2024-05-09T23:51:53.678Z,114.28
2024-05-09T23:54:21.639Z,70.20
2024-05-09T23:56:52.212Z,42.72
2024-05-09T23:59:20.195Z,29.40
